Time;durP1;ratioP1;P1;durP2;ratioP2;P2;SDS_P1;SDS_P2;PMS_P1;PMS_P2;Temp;Humidity;BMP_temperature;BMP_pressure;BME280_temperature;BME280_humidity;BME280_pressure;Samples;Min_cycle;Max_cycle;Signal;HPM_P1;HPM_P2
2022/03/25 00:00:26;;;;;;;9.30;4.93;;;;;;;7.94;41.48;99586.38;4380070;32;20113;-76
2022/03/25 00:02:54;;;;;;;11.07;4.53;;;;;;;7.76;41.95;99588.38;4378889;32;20095;-76
2022/03/25 00:05:21;;;;;;;11.02;4.37;;;;;;;7.59;42.44;99586.88;4379921;32;20173;-76
2022/03/25 00:07:48;;;;;;;12.15;4.62;;;;;;;7.36;43.05;99595.28;4379968;32;20110;-76
2022/03/25 00:10:16;;;;;;;11.68;4.62;;;;;;;7.76;42.15;99588.38;4379943;32;20444;-76
2022/03/25 00:12:43;;;;;;;13.68;4.68;;;;;;;7.90;41.60;99589.28;4379929;32;20156;-76
2022/03/25 00:15:11;;;;;;;8.63;4.50;;;;;;;7.61;42.20;99594.59;4379788;32;20113;-76
2022/03/25 00:17:39;;;;;;;13.55;4.82;;;;;;;7.41;42.77;99583.66;4380029;32;20098;-76
2022/03/25 00:20:07;;;;;;;15.52;5.37;;;;;;;7.37;43.02;99589.16;4380013;32;20470;-76
2022/03/25 00:22:34;;;;;;;13.73;4.60;;;;;;;7.15;43.63;99593.12;4379922;32;20419;-76
2022/03/25 00:25:04;;;;;;;7.90;4.65;;;;;;;6.98;44.13;99590.69;4379718;32;20162;-76
2022/03/25 00:27:32;;;;;;;8.82;3.95;;;;;;;6.81;44.61;99583.91;4379864;32;20150;-76
2022/03/25 00:30:00;;;;;;;8.15;3.75;;;;;;;6.93;44.72;99581.41;4379996;32;20137;-76
2022/03/25 00:32:27;;;;;;;11.25;4.90;;;;;;;7.01;44.33;99582.69;4379761;32;20090;-76
2022/03/25 00:34:55;;;;;;;10.65;4.93;;;;;;;6.99;44.59;99576.75;4379774;32;20149;-76
2022/03/25 00:37:23;;;;;;;10.75;4.37;;;;;;;7.35;43.64;99583.22;4379843;32;20091;-76
2022/03/25 00:39:52;;;;;;;8.27;4.03;;;;;;;7.50;43.20;99581.41;4380186;32;20124;-76
2022/03/25 00:42:19;;;;;;;10.98;3.95;;;;;;;7.36;43.45;99570.09;4380105;32;20449;-76
2022/03/25 00:44:47;;;;;;;11.50;4.45;;;;;;;7.11;43.98;99581.19;4378843;32;20171;-76
2022/03/25 00:47:15;;;;;;;7.03;3.85;;;;;;;7.05;44.10;99577.19;4379969;32;20091;-76
2022/03/25 00:49:42;;;;;;;11.68;4.35;;;;;;;6.89;44.53;99577.31;4379756;32;20086;-76
2022/03/25 00:52:10;;;;;;;6.70;4.18;;;;;;;6.63;45.17;99570.22;4379801;32;20086;-76
2022/03/25 00:54:38;;;;;;;9.88;4.10;;;;;;;6.56;45.42;99575.81;4379886;32;20393;-76
2022/03/25 00:57:07;;;;;;;11.27;4.68;;;;;;;6.44;45.95;99581.75;4379750;32;20373;-76
2022/03/25 00:59:34;;;;;;;9.18;4.25;;;;;;;6.33;46.21;99579.78;4379715;32;20141;-76
2022/03/25 01:02:02;;;;;;;8.65;4.28;;;;;;;6.44;45.97;99583.53;4379707;32;20093;-76
2022/03/25 01:04:30;;;;;;;10.13;4.18;;;;;;;6.19;46.34;99571.94;4379628;32;20078;-76
2022/03/25 01:06:57;;;;;;;8.48;4.45;;;;;;;6.03;46.82;99579.81;4379603;32;20124;-76
2022/03/25 01:09:25;;;;;;;11.98;4.30;;;;;;;5.85;47.34;99579.88;4379487;32;20109;-76
2022/03/25 01:11:52;;;;;;;11.10;4.65;;;;;;;5.80;47.77;99581.91;4379644;32;20166;-76
2022/03/25 01:14:20;;;;;;;9.02;4.57;;;;;;;5.71;48.00;99572.03;4379538;32;20099;-76
2022/03/25 01:16:48;;;;;;;8.85;4.22;;;;;;;5.80;47.88;99571.50;4379401;32;20472;-76
2022/03/25 01:19:15;;;;;;;9.65;4.20;;;;;;;5.67;48.17;99578.31;4379856;32;20471;-76
2022/03/25 01:21:43;;;;;;;5.40;3.83;;;;;;;5.53;48.47;99575.63;4379534;32;20104;-76
2022/03/25 01:24:11;;;;;;;9.25;4.72;;;;;;;5.35;48.92;99577.53;4379607;32;20421;-76
2022/03/25 01:26:39;;;;;;;6.80;3.83;;;;;;;5.40;48.84;99578.09;4379532;32;20158;-76
2022/03/25 01:29:07;;;;;;;11.60;3.78;;;;;;;5.33;49.07;99580.19;4379495;32;20158;-76
2022/03/25 01:31:36;;;;;;;14.38;3.87;;;;;;;5.14;49.62;99581.16;4379847;32;20160;-76
2022/03/25 01:34:03;;;;;;;10.50;4.47;;;;;;;5.19;49.57;99585.28;4379408;32;20109;-76
2022/03/25 01:36:32;;;;;;;6.87;3.70;;;;;;;5.06;49.64;99585.12;4379735;32;20103;-76
2022/03/25 01:39:02;;;;;;;10.48;4.28;;;;;;;4.96;49.89;99590.78;4379432;32;20110;-76
2022/03/25 01:41:29;;;;;;;6.72;3.92;;;;;;;4.87;50.14;99595.63;4379474;32;20086;-76
2022/03/25 01:43:59;;;;;;;9.13;4.03;;;;;;;4.85;50.17;99593.12;4379397;32;20113;-76
2022/03/25 01:46:27;;;;;;;7.80;4.32;;;;;;;4.74;50.36;99585.03;4379209;32;20168;-76
2022/03/25 01:48:54;;;;;;;6.05;3.70;;;;;;;4.74;50.51;99593.69;4379323;32;20090;-76
2022/03/25 01:51:33;;;;;;;7.47;3.80;;;;;;;4.59;50.98;99597.06;4379425;32;20086;-76
2022/03/25 01:54:08;;;;;;;8.50;3.65;;;;;;;4.42;51.64;99596.19;4365992;32;20122;-76
2022/03/25 01:56:35;;;;;;;12.95;4.28;;;;;;;4.33;51.92;99595.78;4365780;32;20139;-76
2022/03/25 01:59:04;;;;;;;7.45;4.20;;;;;;;4.21;52.25;99589.44;4379528;32;20090;-76
2022/03/25 02:01:32;;;;;;;10.38;4.00;;;;;;;4.38;52.06;99596.41;4379443;32;20090;-76
2022/03/25 02:03:59;;;;;;;10.50;3.75;;;;;;;4.23;52.24;99595.41;4379336;32;20091;-77
2022/03/25 02:06:27;;;;;;;7.80;3.50;;;;;;;4.11;52.53;99588.25;4379286;32;20388;-76
2022/03/25 02:08:54;;;;;;;7.43;3.47;;;;;;;4.04;52.75;99591.16;4379238;32;20110;-76
2022/03/25 02:11:22;;;;;;;8.65;4.60;;;;;;;4.08;52.89;99590.06;4379106;32;20082;-76
2022/03/25 02:13:49;;;;;;;6.72;3.55;;;;;;;4.02;53.30;99589.53;4379221;32;20094;-76
2022/03/25 02:16:18;;;;;;;7.07;3.80;;;;;;;4.02;53.20;99597.31;4366041;32;20468;-76
2022/03/25 02:18:45;;;;;;;11.02;4.10;;;;;;;4.00;53.25;99599.97;4379202;32;20117;-76
2022/03/25 02:21:12;;;;;;;10.00;4.10;;;;;;;4.00;53.46;99605.16;4379142;32;20203;-76
2022/03/25 02:23:40;;;;;;;9.25;4.05;;;;;;;3.96;53.43;99603.63;4379114;32;20137;-76
2022/03/25 02:26:08;;;;;;;8.65;3.20;;;;;;;3.95;53.62;99617.53;4379198;32;20499;-76
2022/03/25 02:28:35;;;;;;;11.12;3.78;;;;;;;3.96;53.38;99613.16;4365639;32;20445;-76
2022/03/25 02:31:02;;;;;;;6.68;3.62;;;;;;;3.99;53.51;99611.25;4379265;32;20141;-76
2022/03/25 02:33:30;;;;;;;10.38;4.12;;;;;;;3.88;53.99;99614.38;4379299;32;20083;-76
2022/03/25 02:35:57;;;;;;;8.80;4.07;;;;;;;3.98;53.52;99611.31;4379120;32;20118;-76
2022/03/25 02:38:28;;;;;;;8.60;4.45;;;;;;;3.81;53.99;99612.16;4379108;32;20094;-76
2022/03/25 02:40:55;;;;;;;9.90;4.40;;;;;;;3.83;54.19;99618.94;4378866;32;20083;-76
2022/03/25 02:43:24;;;;;;;9.45;4.20;;;;;;;3.85;53.95;99616.28;4379092;32;20169;-76
2022/03/25 02:45:53;;;;;;;7.57;4.05;;;;;;;3.92;53.70;99622.81;4378977;32;20099;-76
2022/03/25 02:48:20;;;;;;;8.43;3.97;;;;;;;3.86;53.83;99628.31;4378775;32;20098;-76
2022/03/25 02:50:48;;;;;;;9.57;4.07;;;;;;;3.84;53.92;99630.16;4378820;32;20086;-76
2022/03/25 02:53:15;;;;;;;9.05;4.18;;;;;;;3.94;53.87;99630.53;4379075;32;20086;-76
2022/03/25 02:55:43;;;;;;;11.60;3.65;;;;;;;4.06;53.53;99635.16;4377366;32;20417;-76
2022/03/25 02:58:11;;;;;;;9.85;4.43;;;;;;;4.04;53.63;99637.81;4378560;32;20098;-76
2022/03/25 03:00:38;;;;;;;8.93;4.12;;;;;;;3.96;53.92;99639.91;4365009;32;20475;-76
2022/03/25 03:03:05;;;;;;;7.68;3.80;;;;;;;3.90;54.15;99648.00;4378473;32;20103;-76
2022/03/25 03:05:33;;;;;;;10.50;4.70;;;;;;;3.87;54.31;99635.19;4378433;32;20126;-76
2022/03/25 03:08:00;;;;;;;12.20;4.53;;;;;;;3.78;54.59;99646.81;4379434;32;20121;-76
2022/03/25 03:10:29;;;;;;;10.98;4.37;;;;;;;3.79;54.51;99643.31;4380404;32;20090;-76
2022/03/25 03:12:56;;;;;;;10.48;4.87;;;;;;;3.83;54.42;99649.19;4380475;32;20095;-76
2022/03/25 03:15:24;;;;;;;11.68;4.40;;;;;;;3.96;54.25;99642.50;4380643;32;20103;-76
2022/03/25 03:17:52;;;;;;;8.73;3.97;;;;;;;3.90;54.38;99648.00;4380483;32;20174;-76
2022/03/25 03:20:20;;;;;;;9.23;4.45;;;;;;;3.71;55.03;99643.69;4380508;32;20109;-76
2022/03/25 03:22:48;;;;;;;8.60;4.57;;;;;;;3.54;55.55;99651.37;4380234;32;20091;-76
2022/03/25 03:25:16;;;;;;;10.38;3.95;;;;;;;3.50;55.76;99647.28;4380256;32;20237;-76
2022/03/25 03:27:43;;;;;;;7.95;4.60;;;;;;;3.47;55.87;99657.78;4380489;32;20120;-76
2022/03/25 03:30:11;;;;;;;11.43;4.90;;;;;;;3.49;55.82;99650.78;4380288;32;20113;-76
2022/03/25 03:32:38;;;;;;;8.77;4.43;;;;;;;3.42;55.94;99654.53;4380583;32;20429;-76
2022/03/25 03:35:06;;;;;;;8.23;4.05;;;;;;;3.32;56.10;99651.53;4380282;32;20095;-76
2022/03/25 03:37:44;;;;;;;9.07;4.50;;;;;;;3.31;56.23;99652.44;4380388;32;20087;-76
2022/03/25 03:40:14;;;;;;;14.32;4.68;;;;;;;3.28;56.40;99643.06;4380261;32;20099;-76
2022/03/25 03:42:41;;;;;;;12.70;4.62;;;;;;;3.40;56.29;99651.19;4366992;32;20082;-76
2022/03/25 03:45:09;;;;;;;7.50;4.53;;;;;;;3.31;56.34;99648.09;4380449;32;20087;-76
2022/03/25 03:47:38;;;;;;;7.45;4.30;;;;;;;3.40;56.05;99652.03;4380075;32;20094;-76
2022/03/25 03:50:08;;;;;;;9.80;3.85;;;;;;;3.26;56.26;99655.25;4380150;32;20455;-76
2022/03/25 03:52:35;;;;;;;8.77;4.43;;;;;;;3.18;56.62;99649.59;4380156;32;20086;-76
2022/03/25 03:55:04;;;;;;;8.82;4.35;;;;;;;3.14;56.89;99650.63;4379964;32;20154;-76
2022/03/25 03:57:32;;;;;;;9.10;4.43;;;;;;;3.25;56.56;99653.56;4380080;32;20090;-76
2022/03/25 03:59:59;;;;;;;7.55;4.20;;;;;;;3.25;56.48;99653.56;4380145;32;20110;-76
2022/03/25 04:02:26;;;;;;;9.48;4.65;;;;;;;3.32;56.36;99654.12;4380124;32;20118;-76
2022/03/25 04:04:54;;;;;;;8.85;4.18;;;;;;;3.10;56.87;99649.06;4379913;32;20091;-76
2022/03/25 04:07:22;;;;;;;9.48;4.35;;;;;;;3.12;56.95;99642.06;4379852;32;20440;-76
2022/03/25 04:09:49;;;;;;;15.10;4.97;;;;;;;2.99;57.31;99647.78;4380144;32;20105;-76
2022/03/25 04:12:16;;;;;;;9.82;4.78;;;;;;;3.12;57.06;99647.25;4379972;32;20078;-76
2022/03/25 04:14:44;;;;;;;9.82;4.72;;;;;;;2.98;57.37;99645.25;4380003;32;20091;-76
2022/03/25 04:17:11;;;;;;;8.23;4.10;;;;;;;3.04;57.52;99645.00;4380026;32;20396;-76
2022/03/25 04:19:39;;;;;;;9.57;4.50;;;;;;;3.03;57.87;99645.91;4378984;32;20109;-76
2022/03/25 04:22:06;;;;;;;13.18;5.18;;;;;;;3.08;57.89;99646.53;4379983;32;20358;-76
2022/03/25 04:24:33;;;;;;;9.15;4.40;;;;;;;3.12;57.77;99648.09;4379933;32;20398;-76
2022/03/25 04:27:01;;;;;;;11.07;5.47;;;;;;;3.16;57.75;99641.88;4379890;32;20140;-76
2022/03/25 04:29:28;;;;;;;8.45;4.80;;;;;;;3.13;57.82;99638.56;4380196;32;20108;-76
2022/03/25 04:31:55;;;;;;;9.45;5.03;;;;;;;3.21;57.66;99641.69;4379858;32;20200;-76
2022/03/25 04:34:22;;;;;;;10.25;5.32;;;;;;;3.34;57.47;99647.97;4379876;32;20091;-76
2022/03/25 04:36:49;;;;;;;10.50;5.15;;;;;;;3.29;57.77;99649.94;4379947;32;20534;-76
2022/03/25 04:39:16;;;;;;;11.90;5.93;;;;;;;3.21;58.31;99646.84;4379743;32;20539;-76
2022/03/25 04:41:44;;;;;;;9.70;4.50;;;;;;;3.45;57.81;99649.22;4379780;32;20114;-76
2022/03/25 04:44:11;;;;;;;9.98;5.07;;;;;;;3.46;57.94;99648.31;4379865;32;20095;-76
2022/03/25 04:46:39;;;;;;;11.77;6.15;;;;;;;3.47;57.91;99647.41;4379755;32;20106;-76
2022/03/25 04:49:08;;;;;;;13.02;5.32;;;;;;;3.51;57.88;99654.97;4379764;32;20404;-76
2022/03/25 04:51:35;;;;;;;12.52;5.65;;;;;;;3.59;57.93;99646.84;4379758;32;20145;-76
2022/03/25 04:54:03;;;;;;;11.02;5.35;;;;;;;3.66;57.85;99648.22;4379788;32;20476;-76
2022/03/25 04:56:33;;;;;;;15.88;5.72;;;;;;;3.66;57.87;99645.63;4379666;32;20078;-76
2022/03/25 04:59:00;;;;;;;12.60;5.55;;;;;;;3.66;57.81;99645.63;4379824;32;20109;-76
2022/03/25 05:01:28;;;;;;;9.10;4.95;;;;;;;3.57;58.14;99643.47;4379915;32;20199;-76
2022/03/25 05:03:56;;;;;;;9.88;5.53;;;;;;;3.62;57.99;99651.03;4379480;32;20142;-76
2022/03/25 05:06:23;;;;;;;9.27;4.75;;;;;;;3.72;57.74;99647.97;4379822;32;20086;-76
2022/03/25 05:08:50;;;;;;;14.93;5.05;;;;;;;3.76;57.88;99653.00;4379645;32;20773;-76
2022/03/25 05:11:18;;;;;;;10.68;5.45;;;;;;;3.91;57.42;99652.28;4379513;32;20091;-76
2022/03/25 05:13:45;;;;;;;15.38;5.15;;;;;;;3.96;57.21;99650.28;4378903;32;20183;-76
2022/03/25 05:16:12;;;;;;;10.68;5.35;;;;;;;4.05;57.21;99660.22;4379446;32;20086;-76
2022/03/25 05:18:40;;;;;;;12.37;5.53;;;;;;;4.28;56.53;99654.84;4379480;32;20083;-77
2022/03/25 05:21:07;;;;;;;9.27;5.28;;;;;;;4.47;55.91;99657.34;4379553;32;20365;-77
2022/03/25 05:23:35;;;;;;;12.60;5.12;;;;;;;4.53;56.00;99659.66;4379743;32;20118;-76
2022/03/25 05:26:02;;;;;;;13.02;5.85;;;;;;;4.68;55.72;99664.06;4379312;32;20120;-77
2022/03/25 05:28:35;;;;;;;14.65;5.37;;;;;;;4.82;55.42;99662.53;4379399;32;20149;-77
2022/03/25 05:31:03;;;;;;;10.05;5.70;;;;;;;4.98;55.03;99669.47;4379067;32;20117;-76
2022/03/25 05:33:30;;;;;;;11.93;5.75;;;;;;;5.17;54.55;99668.50;4379439;32;20178;-76
2022/03/25 05:35:57;;;;;;;14.20;5.45;;;;;;;5.48;53.87;99675.50;4379668;32;20098;-76
2022/03/25 05:38:25;;;;;;;14.07;5.22;;;;;;;5.69;53.10;99673.50;4378576;32;20153;-76
2022/03/25 05:40:52;;;;;;;10.95;5.30;;;;;;;5.82;52.93;99668.47;4378576;32;20086;-76
2022/03/25 05:43:19;;;;;;;14.68;6.60;;;;;;;6.14;52.48;99668.47;4379081;32;20090;-76
2022/03/25 05:45:46;;;;;;;12.48;6.10;;;;;;;6.34;52.59;99666.50;4379249;32;20098;-76
2022/03/25 05:48:13;;;;;;;13.20;5.22;;;;;;;6.55;52.04;99669.62;4379484;32;20109;-78
2022/03/25 05:50:41;;;;;;;15.93;5.25;;;;;;;6.75;51.41;99668.44;4379449;32;20109;-79
2022/03/25 05:53:08;;;;;;;28.17;6.97;;;;;;;6.91;51.03;99669.22;4379215;32;20115;-79
2022/03/25 05:55:38;;;;;;;15.90;5.40;;;;;;;7.19;50.46;99672.78;4379163;32;20503;-78
2022/03/25 05:58:06;;;;;;;22.48;7.07;;;;;;;7.37;49.88;99675.19;4379285;32;20125;-79
2022/03/25 06:00:34;;;;;;;24.45;6.75;;;;;;;7.58;49.23;99667.81;4378942;32;20113;-79
2022/03/25 06:03:02;;;;;;;17.25;5.35;;;;;;;7.82;48.75;99665.41;4379123;32;20102;-79
2022/03/25 06:05:30;;;;;;;28.80;6.60;;;;;;;7.96;48.30;99669.75;4375628;32;120036;-79
2022/03/25 06:11:27;;;;;;;27.40;6.47;;;;;;;8.37;48.31;99668.00;4373421;32;20105;-79
2022/03/25 06:13:55;;;;;;;14.07;5.72;;;;;;;8.65;47.43;99678.34;4379116;32;20106;-79
2022/03/25 06:16:22;;;;;;;12.10;6.87;;;;;;;8.95;45.79;99678.97;4378806;32;20160;-79
2022/03/25 06:22:20;;;;;;;10.65;5.68;;;;;;;10.66;41.61;99672.09;4378530;32;20482;-79
2022/03/25 06:24:47;;;;;;;13.30;6.18;;;;;;;10.42;41.74;99683.44;4378896;32;20126;-79
2022/03/25 06:27:15;;;;;;;16.95;5.93;;;;;;;10.45;40.41;99682.41;4378646;32;20250;-79
2022/03/25 06:29:42;;;;;;;10.68;6.00;;;;;;;10.40;40.69;99685.34;4378634;32;20102;-79
2022/03/25 06:35:39;;;;;;;13.52;6.80;;;;;;;10.35;40.26;99691.88;4378810;32;20157;-79
2022/03/25 06:38:08;;;;;;;14.25;6.15;;;;;;;10.71;39.44;99685.69;4378590;32;20146;-79
2022/03/25 06:44:06;;;;;;;15.25;7.00;;;;;;;10.67;38.59;99686.84;4378046;32;20687;-78
2022/03/25 06:46:34;;;;;;;13.80;7.22;;;;;;;10.84;37.36;99688.22;4378318;32;20117;-76
2022/03/25 06:49:02;;;;;;;16.10;6.75;;;;;;;10.43;38.32;99692.97;4378199;32;20491;-77
2022/03/25 06:51:29;;;;;;;15.63;6.87;;;;;;;10.32;37.99;99689.44;4378585;32;20117;-77
2022/03/25 06:53:57;;;;;;;11.85;6.12;;;;;;;10.73;37.52;99691.62;4377163;32;20079;-77
2022/03/25 06:56:24;;;;;;;14.25;7.00;;;;;;;10.81;37.27;99696.31;4378143;32;20126;-76
2022/03/25 06:58:52;;;;;;;15.57;6.82;;;;;;;10.82;36.63;99692.72;4378277;32;20099;-77
2022/03/25 07:01:20;;;;;;;15.57;6.93;;;;;;;10.80;36.66;99697.25;4378352;32;20091;-77
2022/03/25 07:03:47;;;;;;;14.90;6.87;;;;;;;10.91;37.05;99699.06;4378026;32;20083;-76
2022/03/25 07:06:17;;;;;;;12.37;6.60;;;;;;;10.86;36.69;99702.03;4377867;32;20095;-77
2022/03/25 07:12:16;;;;;;;12.07;6.85;;;;;;;11.28;36.46;99707.59;4377996;32;20125;-77
2022/03/25 07:14:44;;;;;;;16.70;7.50;;;;;;;11.52;35.73;99710.09;4377305;32;20109;-76
2022/03/25 07:20:41;;;;;;;13.98;6.35;;;;;;;11.36;36.44;99718.31;4378280;32;20137;-79
2022/03/25 07:23:09;;;;;;;16.10;8.23;;;;;;;11.00;37.23;99712.31;4378063;32;20162;-77
2022/03/25 07:25:36;;;;;;;17.33;6.70;;;;;;;11.31;37.44;99715.22;4378087;32;20900;-78
2022/03/25 07:28:04;;;;;;;14.13;6.78;;;;;;;11.50;36.40;99711.97;4377917;32;20444;-78
2022/03/25 07:34:02;;;;;;;15.25;6.53;;;;;;;11.65;36.58;99724.88;4377789;32;20191;-77
2022/03/25 07:36:29;;;;;;;13.38;5.93;;;;;;;12.33;36.23;99716.88;4377683;32;20098;-77
2022/03/25 07:42:26;;;;;;;16.02;6.55;;;;;;;12.43;37.40;99723.88;4377192;32;20125;-71
2022/03/25 07:44:54;;;;;;;15.98;7.10;;;;;;;12.47;35.07;99734.97;4377193;32;20117;-72
2022/03/25 07:47:21;;;;;;;13.60;6.72;;;;;;;12.27;35.15;99727.91;4377436;32;20155;-71
2022/03/25 07:53:19;;;;;;;13.77;6.28;;;;;;;12.46;34.16;99733.31;4377961;32;20162;-71
2022/03/25 07:55:50;;;;;;;11.55;6.22;;;;;;;12.21;34.88;99735.31;4379444;32;20494;-71
2022/03/25 07:58:21;;;;;;;12.18;5.80;;;;;;;12.31;34.83;99739.81;4379601;32;20079;-73
2022/03/25 08:04:20;;;;;;;15.75;6.53;;;;;;;12.73;34.77;99734.63;4379684;32;20149;-72
2022/03/25 08:10:28;;;;;;;18.65;7.10;;;;;;;12.53;35.33;99728.38;4379696;32;20121;-72
2022/03/25 08:16:26;;;;;;;11.25;5.43;;;;;;;12.99;33.57;99723.72;4379968;32;20125;-72
2022/03/25 08:18:53;;;;;;;10.85;5.30;;;;;;;13.06;33.88;99730.16;4379814;32;20090;-72
2022/03/25 08:27:49;;;;;;;11.35;5.32;;;;;;;13.84;32.81;99731.34;4379870;32;20117;-72
2022/03/25 08:33:47;;;;;;;12.05;6.07;;;;;;;14.07;33.31;99735.59;4379544;32;20426;-72
2022/03/25 08:36:17;;;;;;;12.52;5.20;;;;;;;14.32;31.98;99737.69;4379568;32;20463;-73
2022/03/25 08:38:45;;;;;;;9.73;5.65;;;;;;;14.17;31.99;99732.00;4379363;32;20090;-72
2022/03/25 08:41:12;;;;;;;14.30;6.00;;;;;;;14.18;31.67;99735.44;4379344;32;20141;-72
2022/03/25 08:43:40;;;;;;;13.68;6.50;;;;;;;14.03;31.58;99737.62;4379053;32;20070;-70
2022/03/25 08:46:07;;;;;;;14.48;5.45;;;;;;;13.54;32.81;99729.59;4379553;32;20099;-71
2022/03/25 08:48:35;;;;;;;20.58;6.72;;;;;;;14.09;31.50;99731.81;4379578;32;20087;-71
2022/03/25 08:51:02;;;;;;;10.93;5.47;;;;;;;13.94;31.53;99743.72;4379594;32;20738;-71
2022/03/25 09:00:19;;;;;;;12.45;6.12;;;;;;;13.70;32.12;99734.37;4378398;32;20113;-72
2022/03/25 09:06:18;;;;;;;12.00;5.65;;;;;;;14.60;31.66;99737.84;4378301;32;20098;-71
2022/03/25 09:08:46;;;;;;;16.48;6.40;;;;;;;14.10;31.32;99738.75;4379091;32;20146;-73
2022/03/25 09:11:13;;;;;;;13.82;6.15;;;;;;;14.07;31.10;99733.75;4379250;32;20541;-73
2022/03/25 09:17:10;;;;;;;16.80;6.50;;;;;;;14.26;30.45;99730.34;4379576;32;20160;-73
2022/03/25 09:19:37;;;;;;;16.48;7.05;;;;;;;14.16;31.08;99735.59;4379439;32;20099;-74
2022/03/25 09:22:04;;;;;;;16.75;6.75;;;;;;;14.92;32.27;99728.81;4379759;32;20102;-73
2022/03/25 09:24:32;;;;;;;21.48;7.45;;;;;;;15.06;29.80;99722.25;4379264;32;20113;-74
2022/03/25 09:26:59;;;;;;;14.60;7.32;;;;;;;14.76;29.85;99718.00;4379181;32;20103;-74
2022/03/25 09:29:26;;;;;;;15.00;7.20;;;;;;;15.41;29.69;99726.03;4379406;32;20145;-74
2022/03/25 09:35:24;;;;;;;13.57;6.95;;;;;;;14.85;30.72;99725.06;4379509;32;20155;-72
2022/03/25 09:37:52;;;;;;;16.05;7.60;;;;;;;14.67;30.95;99720.53;4379359;32;20086;-72
2022/03/25 09:40:25;;;;;;;16.90;7.18;;;;;;;14.90;30.25;99712.31;4379177;32;20095;-73
2022/03/25 09:42:53;;;;;;;;;;;;;;;15.21;30.65;99720.81;4379914;32;20094;-73
2022/03/25 09:48:51;;;;;;;18.30;7.18;;;;;;;15.07;29.88;99722.12;4379230;32;20120;-73
2022/03/25 09:51:27;;;;;;;14.87;7.18;;;;;;;15.30;30.21;99721.78;4378920;32;20122;-73
2022/03/25 09:57:26;;;;;;;24.52;7.93;;;;;;;15.20;29.70;99718.31;4378321;32;20100;-73
2022/03/25 09:59:53;;;;;;;17.45;7.62;;;;;;;15.43;30.12;99709.09;4379434;32;20098;-73
2022/03/25 10:05:57;;;;;;;13.68;7.70;;;;;;;15.74;29.08;99703.50;4379280;32;20156;-73
2022/03/25 10:08:40;;;;;;;20.10;7.80;;;;;;;15.52;29.58;99696.81;4379482;32;20145;-73
2022/03/25 10:11:20;;;;;;;15.50;6.82;;;;;;;15.57;29.56;99691.91;4379141;32;20513;-74
2022/03/25 10:17:19;;;;;;;14.43;7.50;;;;;;;15.42;28.99;99685.47;4379139;32;20117;-74
2022/03/25 10:19:48;;;;;;;23.15;8.48;;;;;;;15.30;29.62;99686.63;4379159;32;20098;-74
2022/03/25 10:25:55;;;;;;;17.02;7.80;;;;;;;16.71;28.13;99672.06;4378979;32;20118;-75
2022/03/25 10:28:32;;;;;;;16.75;7.43;;;;;;;16.40;29.06;99664.56;4378777;32;20091;-74
2022/03/25 10:34:29;;;;;;;11.05;4.57;;;;;;;16.77;27.96;99665.31;4378953;32;20101;-74
2022/03/25 10:37:02;;;;;;;12.77;3.83;;;;;;;16.19;28.13;99659.56;4378711;32;20121;-74
2022/03/25 10:39:30;;;;;;;8.20;4.40;;;;;;;15.92;28.57;99663.94;4378784;32;20082;-75
2022/03/25 10:41:59;;;;;;;12.15;4.25;;;;;;;16.17;27.57;99660.69;4378879;32;20141;-73
2022/03/25 10:44:38;;;;;;;10.40;4.40;;;;;;;15.82;27.99;99660.56;4378936;32;20376;-73
2022/03/25 10:47:14;;;;;;;18.30;5.62;;;;;;;15.64;28.05;99663.13;4378742;32;20087;-71
2022/03/25 10:53:13;;;;;;;17.98;5.93;;;;;;;15.78;28.22;99665.28;4378499;32;20143;-73
2022/03/25 10:55:40;;;;;;;9.75;5.15;;;;;;;16.10;27.73;99656.03;4378600;32;20083;-74
2022/03/25 10:58:08;;;;;;;12.80;5.78;;;;;;;16.20;27.33;99655.12;4365070;32;20110;-74
2022/03/25 11:00:36;;;;;;;13.15;6.72;;;;;;;16.35;27.77;99656.25;4378754;32;20098;-74
2022/03/25 11:03:04;;;;;;;10.07;5.90;;;;;;;16.22;27.53;99650.53;4365155;32;20464;-75
2022/03/25 11:05:32;;;;;;;16.48;6.53;;;;;;;16.20;27.36;99647.19;4378567;32;20148;-75
2022/03/25 11:07:59;;;;;;;10.52;6.43;;;;;;;16.36;27.18;99644.69;4378453;32;20531;-75
2022/03/25 11:10:27;;;;;;;15.52;7.45;;;;;;;16.39;27.72;99644.38;4365037;32;20464;-76
2022/03/25 11:12:54;;;;;;;15.35;7.47;;;;;;;16.30;27.64;99637.34;4364942;32;20082;-75
2022/03/25 11:15:21;;;;;;;16.65;7.93;;;;;;;16.53;27.33;99642.16;4364556;32;20474;-75
2022/03/25 11:21:20;;;;;;;17.17;8.20;;;;;;;16.77;27.31;99636.22;4378282;32;20120;-75
2022/03/25 11:23:51;;;;;;;16.95;6.62;;;;;;;16.49;27.54;99639.81;4364937;32;20095;-74
2022/03/25 11:26:22;;;;;;;19.08;7.78;;;;;;;16.31;27.57;99628.44;4364641;32;20075;-73
2022/03/25 11:28:52;;;;;;;11.05;6.32;;;;;;;16.30;27.58;99626.78;4365180;32;20456;-73
2022/03/25 11:31:19;;;;;;;11.90;6.80;;;;;;;16.37;27.67;99638.41;4366633;32;20129;-73
2022/03/25 11:34:10;;;;;;;17.25;8.23;;;;;;;16.62;27.53;99617.44;4379585;32;20156;-75
2022/03/25 11:40:15;;;;;;;12.13;6.57;;;;;;;17.37;27.21;99615.03;4380141;32;20537;-73
2022/03/25 11:42:50;;;;;;;11.00;6.47;;;;;;;17.25;26.45;99615.50;4380081;32;20099;-73
2022/03/25 11:48:48;;;;;;;13.35;6.68;;;;;;;17.52;26.59;99607.31;4380000;32;20133;-73
2022/03/25 11:51:34;;;;;;;18.02;6.45;;;;;;;17.25;26.87;99611.00;4379996;32;20094;-75
2022/03/25 11:54:04;;;;;;;15.07;5.57;;;;;;;17.39;26.58;99601.62;4380108;32;20113;-74
2022/03/25 11:56:47;;;;;;;12.77;5.72;;;;;;;17.32;26.74;99611.19;4379939;32;20122;-74
2022/03/25 12:03:08;;;;;;;10.00;5.75;;;;;;;17.29;26.33;99593.81;4379954;32;20118;-74
2022/03/25 12:05:37;;;;;;;10.60;5.03;;;;;;;17.19;26.83;99591.28;4379806;32;20375;-74
2022/03/25 12:08:29;;;;;;;7.32;4.87;;;;;;;17.07;27.34;99591.75;4379701;32;20448;-75
2022/03/25 12:10:56;;;;;;;11.95;3.83;;;;;;;17.05;27.28;99583.97;4379973;32;20448;-74
2022/03/25 12:13:53;;;;;;;7.32;3.62;;;;;;;17.18;27.43;99584.34;4379712;32;20094;-75
2022/03/25 12:16:45;;;;;;;7.18;3.50;;;;;;;16.94;27.72;99584.22;4379952;32;20118;-75
2022/03/25 12:22:42;;;;;;;7.53;3.50;;;;;;;17.23;27.05;99575.94;4379550;32;20108;-74
2022/03/25 12:28:38;;;;;;;8.48;3.42;;;;;;;17.57;26.78;99564.41;4379403;32;20213;-75
2022/03/25 12:31:06;;;;;;;8.05;4.40;;;;;;;17.19;26.46;99571.94;4379381;32;20095;-75
2022/03/25 12:33:34;;;;;;;9.07;3.58;;;;;;;17.20;26.75;99577.06;4379637;32;20148;-74
2022/03/25 12:36:04;;;;;;;7.55;3.08;;;;;;;17.42;26.10;99574.00;4366457;32;20107;-74
2022/03/25 12:38:32;;;;;;;5.37;3.25;;;;;;;17.11;26.19;99572.75;4366643;32;20129;-76
2022/03/25 12:40:59;;;;;;;8.38;3.40;;;;;;;17.22;25.81;99574.25;4378508;32;20156;-75
2022/03/25 12:47:16;;;;;;;8.93;4.15;;;;;;;17.07;26.39;99571.38;4380076;32;20173;-75
2022/03/25 12:53:15;;;;;;;9.10;3.70;;;;;;;17.64;25.66;99548.69;4379798;32;20462;-75
2022/03/25 12:59:13;;;;;;;7.72;3.60;;;;;;;17.41;25.94;99552.00;4378962;32;20197;-74
2022/03/25 13:01:44;;;;;;;8.68;3.92;;;;;;;17.51;25.61;99552.66;4366307;32;20178;-74
2022/03/25 13:04:12;;;;;;;8.00;4.05;;;;;;;17.79;25.21;99546.22;4379744;32;20137;-74
2022/03/25 13:06:39;;;;;;;7.12;3.83;;;;;;;17.79;24.67;99539.13;4379557;32;20133;-73
2022/03/25 13:09:06;;;;;;;13.43;3.03;;;;;;;17.72;24.69;99546.88;4379300;32;20111;-74
2022/03/25 13:11:33;;;;;;;5.50;3.20;;;;;;;17.60;23.93;99544.72;4379304;32;20103;-74
2022/03/25 13:17:43;;;;;;;8.95;4.50;;;;;;;17.51;24.43;99542.06;4379304;32;20592;-76
2022/03/25 13:20:16;;;;;;;9.20;5.00;;;;;;;17.68;25.32;99532.31;4379243;32;20171;-76
2022/03/25 13:23:08;;;;;;;8.40;3.77;;;;;;;17.69;24.54;99536.63;4379500;32;20083;-75
2022/03/25 13:25:40;;;;;;;12.10;6.87;;;;;;;17.94;24.75;99536.69;4379109;32;20113;-75
2022/03/25 13:28:16;;;;;;;11.12;6.12;;;;;;;18.06;25.09;99529.19;4379217;32;20365;-75
2022/03/25 13:30:45;;;;;;;11.35;5.18;;;;;;;18.09;24.50;99528.84;4365768;32;20148;-76
2022/03/25 13:33:17;;;;;;;13.10;5.68;;;;;;;18.32;24.37;99528.16;4379274;32;20111;-76
2022/03/25 13:35:48;;;;;;;14.27;5.55;;;;;;;18.56;23.87;99528.13;4379415;32;20094;-76
2022/03/25 13:38:17;;;;;;;8.93;4.22;;;;;;;17.90;24.42;99522.91;4379465;32;20476;-76
2022/03/25 13:40:45;;;;;;;8.18;3.78;;;;;;;18.08;23.73;99528.03;4379274;32;20118;-76
2022/03/25 13:43:23;;;;;;;13.88;6.20;;;;;;;18.17;23.43;99531.53;4379217;32;20099;-75
2022/03/25 13:45:59;;;;;;;11.10;5.55;;;;;;;18.12;24.65;99531.16;4379215;32;20144;-75
2022/03/25 13:52:08;;;;;;;8.63;4.25;;;;;;;17.85;24.51;99533.16;4378786;32;20138;-75